sensor_id;sensor_type;location;lat;lon;timestamp;P1;durP1;ratioP1;P2;durP2;ratioP2
28531;SDS011;15738;44.860;10.066;2023-07-29T00:02:35;8.05;;;3.13;;
28531;SDS011;15738;44.860;10.066;2023-07-29T00:05:20;6.47;;;2.85;;
28531;SDS011;15738;44.860;10.066;2023-07-29T00:08:06;8.13;;;3.10;;
28531;SDS011;15738;44.860;10.066;2023-07-29T00:10:52;6.72;;;2.60;;
28531;SDS011;15738;44.860;10.066;2023-07-29T00:13:38;6.10;;;2.63;;
28531;SDS011;15738;44.860;10.066;2023-07-29T00:16:24;4.43;;;2.67;;
28531;SDS011;15738;44.860;10.066;2023-07-29T00:19:10;6.68;;;2.80;;
28531;SDS011;15738;44.860;10.066;2023-07-29T00:21:56;5.50;;;2.50;;
28531;SDS011;15738;44.860;10.066;2023-07-29T00:24:41;4.43;;;2.53;;
28531;SDS011;15738;44.860;10.066;2023-07-29T00:27:27;10.07;;;2.85;;
28531;SDS011;15738;44.860;10.066;2023-07-29T00:30:13;10.18;;;2.70;;
28531;SDS011;15738;44.860;10.066;2023-07-29T00:33:00;8.63;;;2.90;;
28531;SDS011;15738;44.860;10.066;2023-07-29T00:35:45;6.35;;;2.72;;
28531;SDS011;15738;44.860;10.066;2023-07-29T00:38:31;5.68;;;2.50;;
28531;SDS011;15738;44.860;10.066;2023-07-29T00:41:17;6.80;;;2.55;;
28531;SDS011;15738;44.860;10.066;2023-07-29T00:44:03;5.15;;;2.50;;
28531;SDS011;15738;44.860;10.066;2023-07-29T00:46:50;6.25;;;2.60;;
28531;SDS011;15738;44.860;10.066;2023-07-29T00:49:39;4.45;;;2.55;;
28531;SDS011;15738;44.860;10.066;2023-07-29T00:52:25;5.45;;;2.67;;
28531;SDS011;15738;44.860;10.066;2023-07-29T00:55:12;5.68;;;2.97;;
28531;SDS011;15738;44.860;10.066;2023-07-29T00:57:57;8.57;;;2.95;;
28531;SDS011;15738;44.860;10.066;2023-07-29T01:00:43;11.25;;;3.40;;
28531;SDS011;15738;44.860;10.066;2023-07-29T01:03:30;9.88;;;3.42;;
28531;SDS011;15738;44.860;10.066;2023-07-29T01:09:30;9.43;;;3.10;;
28531;SDS011;15738;44.860;10.066;2023-07-29T01:12:49;7.85;;;2.97;;
28531;SDS011;15738;44.860;10.066;2023-07-29T01:18:39;6.55;;;2.72;;
28531;SDS011;15738;44.860;10.066;2023-07-29T01:21:25;5.88;;;2.95;;
28531;SDS011;15738;44.860;10.066;2023-07-29T01:24:12;7.95;;;3.00;;
28531;SDS011;15738;44.860;10.066;2023-07-29T01:26:58;7.60;;;2.90;;
28531;SDS011;15738;44.860;10.066;2023-07-29T01:29:46;11.70;;;4.07;;
28531;SDS011;15738;44.860;10.066;2023-07-29T01:36:07;10.15;;;5.32;;
28531;SDS011;15738;44.860;10.066;2023-07-29T01:39:04;8.20;;;4.57;;
28531;SDS011;15738;44.860;10.066;2023-07-29T01:41:50;18.33;;;5.45;;
28531;SDS011;15738;44.860;10.066;2023-07-29T01:44:36;10.52;;;5.88;;
28531;SDS011;15738;44.860;10.066;2023-07-29T01:47:22;11.48;;;5.47;;
28531;SDS011;15738;44.860;10.066;2023-07-29T01:50:08;14.48;;;5.32;;
28531;SDS011;15738;44.860;10.066;2023-07-29T01:52:55;11.02;;;5.10;;
28531;SDS011;15738;44.860;10.066;2023-07-29T01:55:42;9.98;;;5.57;;
28531;SDS011;15738;44.860;10.066;2023-07-29T01:58:29;12.90;;;5.88;;
28531;SDS011;15738;44.860;10.066;2023-07-29T02:01:15;12.90;;;5.75;;
28531;SDS011;15738;44.860;10.066;2023-07-29T02:04:01;11.50;;;5.63;;
28531;SDS011;15738;44.860;10.066;2023-07-29T02:06:47;10.57;;;6.00;;
28531;SDS011;15738;44.860;10.066;2023-07-29T02:09:33;14.10;;;5.82;;
28531;SDS011;15738;44.860;10.066;2023-07-29T02:12:19;12.85;;;5.70;;
28531;SDS011;15738;44.860;10.066;2023-07-29T02:15:05;10.30;;;4.97;;
28531;SDS011;15738;44.860;10.066;2023-07-29T02:17:51;11.88;;;3.72;;
28531;SDS011;15738;44.860;10.066;2023-07-29T02:20:37;10.57;;;4.00;;
28531;SDS011;15738;44.860;10.066;2023-07-29T02:23:23;11.07;;;3.97;;
28531;SDS011;15738;44.860;10.066;2023-07-29T02:26:09;14.85;;;4.45;;
28531;SDS011;15738;44.860;10.066;2023-07-29T02:28:56;8.20;;;4.63;;
28531;SDS011;15738;44.860;10.066;2023-07-29T02:31:41;10.60;;;4.75;;
28531;SDS011;15738;44.860;10.066;2023-07-29T02:34:29;10.48;;;4.28;;
28531;SDS011;15738;44.860;10.066;2023-07-29T02:37:15;10.43;;;5.00;;
28531;SDS011;15738;44.860;10.066;2023-07-29T02:40:01;8.80;;;5.07;;
28531;SDS011;15738;44.860;10.066;2023-07-29T02:42:49;10.70;;;4.70;;
28531;SDS011;15738;44.860;10.066;2023-07-29T02:45:35;10.90;;;5.78;;
28531;SDS011;15738;44.860;10.066;2023-07-29T02:48:20;13.05;;;5.20;;
28531;SDS011;15738;44.860;10.066;2023-07-29T02:51:06;13.40;;;5.25;;
28531;SDS011;15738;44.860;10.066;2023-07-29T02:53:52;11.30;;;5.72;;
28531;SDS011;15738;44.860;10.066;2023-07-29T02:56:38;8.95;;;5.55;;
28531;SDS011;15738;44.860;10.066;2023-07-29T02:59:24;14.43;;;5.30;;
28531;SDS011;15738;44.860;10.066;2023-07-29T03:02:10;10.57;;;5.20;;
28531;SDS011;15738;44.860;10.066;2023-07-29T03:04:56;9.32;;;4.57;;
28531;SDS011;15738;44.860;10.066;2023-07-29T03:07:42;10.85;;;4.38;;
28531;SDS011;15738;44.860;10.066;2023-07-29T03:10:28;10.65;;;4.80;;
28531;SDS011;15738;44.860;10.066;2023-07-29T03:13:13;11.77;;;4.35;;
28531;SDS011;15738;44.860;10.066;2023-07-29T03:16:10;9.73;;;4.65;;
28531;SDS011;15738;44.860;10.066;2023-07-29T03:18:58;11.07;;;5.32;;
28531;SDS011;15738;44.860;10.066;2023-07-29T03:21:45;9.50;;;4.97;;
28531;SDS011;15738;44.860;10.066;2023-07-29T03:24:31;12.95;;;5.32;;
28531;SDS011;15738;44.860;10.066;2023-07-29T03:27:18;11.55;;;4.78;;
28531;SDS011;15738;44.860;10.066;2023-07-29T03:30:04;10.43;;;4.53;;
28531;SDS011;15738;44.860;10.066;2023-07-29T03:32:50;10.68;;;4.60;;
28531;SDS011;15738;44.860;10.066;2023-07-29T03:35:36;10.68;;;4.75;;
28531;SDS011;15738;44.860;10.066;2023-07-29T03:38:22;10.35;;;4.97;;
28531;SDS011;15738;44.860;10.066;2023-07-29T03:41:09;8.60;;;4.40;;
28531;SDS011;15738;44.860;10.066;2023-07-29T03:43:55;10.27;;;3.65;;
28531;SDS011;15738;44.860;10.066;2023-07-29T03:46:40;10.32;;;3.90;;
28531;SDS011;15738;44.860;10.066;2023-07-29T03:49:27;9.40;;;3.47;;
28531;SDS011;15738;44.860;10.066;2023-07-29T03:52:13;6.72;;;3.88;;
28531;SDS011;15738;44.860;10.066;2023-07-29T03:54:59;8.55;;;3.20;;
28531;SDS011;15738;44.860;10.066;2023-07-29T03:57:45;8.50;;;3.20;;
28531;SDS011;15738;44.860;10.066;2023-07-29T04:00:30;6.90;;;3.58;;
28531;SDS011;15738;44.860;10.066;2023-07-29T04:03:17;7.70;;;3.55;;
28531;SDS011;15738;44.860;10.066;2023-07-29T04:06:03;6.45;;;3.40;;
28531;SDS011;15738;44.860;10.066;2023-07-29T04:08:49;4.97;;;2.90;;
28531;SDS011;15738;44.860;10.066;2023-07-29T04:11:35;10.90;;;3.58;;
28531;SDS011;15738;44.860;10.066;2023-07-29T04:14:21;9.90;;;3.72;;
28531;SDS011;15738;44.860;10.066;2023-07-29T04:17:07;8.35;;;3.80;;
28531;SDS011;15738;44.860;10.066;2023-07-29T04:19:53;12.85;;;3.70;;
28531;SDS011;15738;44.860;10.066;2023-07-29T04:22:43;9.98;;;3.80;;
28531;SDS011;15738;44.860;10.066;2023-07-29T04:25:29;8.77;;;4.03;;
28531;SDS011;15738;44.860;10.066;2023-07-29T04:28:15;6.40;;;3.33;;
28531;SDS011;15738;44.860;10.066;2023-07-29T04:31:01;8.52;;;3.78;;
28531;SDS011;15738;44.860;10.066;2023-07-29T04:33:47;6.32;;;3.05;;
28531;SDS011;15738;44.860;10.066;2023-07-29T04:36:33;6.57;;;3.72;;
28531;SDS011;15738;44.860;10.066;2023-07-29T04:39:19;10.38;;;3.85;;
28531;SDS011;15738;44.860;10.066;2023-07-29T04:42:05;7.07;;;3.67;;
28531;SDS011;15738;44.860;10.066;2023-07-29T04:44:52;9.82;;;3.22;;
28531;SDS011;15738;44.860;10.066;2023-07-29T04:47:38;12.13;;;3.45;;
28531;SDS011;15738;44.860;10.066;2023-07-29T04:50:24;15.15;;;3.90;;
28531;SDS011;15738;44.860;10.066;2023-07-29T04:53:10;10.20;;;3.75;;
28531;SDS011;15738;44.860;10.066;2023-07-29T04:55:55;9.82;;;3.70;;
28531;SDS011;15738;44.860;10.066;2023-07-29T04:58:41;12.50;;;4.10;;
28531;SDS011;15738;44.860;10.066;2023-07-29T05:01:27;8.63;;;4.22;;
28531;SDS011;15738;44.860;10.066;2023-07-29T05:04:13;11.05;;;3.78;;
28531;SDS011;15738;44.860;10.066;2023-07-29T05:06:59;9.40;;;3.70;;
28531;SDS011;15738;44.860;10.066;2023-07-29T05:09:45;10.38;;;3.90;;
28531;SDS011;15738;44.860;10.066;2023-07-29T05:12:32;10.43;;;4.13;;
28531;SDS011;15738;44.860;10.066;2023-07-29T05:15:18;10.40;;;3.70;;
28531;SDS011;15738;44.860;10.066;2023-07-29T05:18:04;10.43;;;4.13;;
28531;SDS011;15738;44.860;10.066;2023-07-29T05:20:50;11.80;;;3.53;;
28531;SDS011;15738;44.860;10.066;2023-07-29T05:23:36;11.32;;;4.38;;
28531;SDS011;15738;44.860;10.066;2023-07-29T05:26:22;8.32;;;3.60;;
28531;SDS011;15738;44.860;10.066;2023-07-29T05:29:08;10.00;;;3.65;;
28531;SDS011;15738;44.860;10.066;2023-07-29T05:31:54;14.20;;;4.25;;
28531;SDS011;15738;44.860;10.066;2023-07-29T05:34:40;8.63;;;4.00;;
28531;SDS011;15738;44.860;10.066;2023-07-29T05:37:25;10.38;;;3.63;;
28531;SDS011;15738;44.860;10.066;2023-07-29T05:40:11;11.15;;;4.07;;
28531;SDS011;15738;44.860;10.066;2023-07-29T05:42:58;8.50;;;3.42;;
28531;SDS011;15738;44.860;10.066;2023-07-29T05:45:44;10.18;;;3.75;;
28531;SDS011;15738;44.860;10.066;2023-07-29T05:48:30;8.48;;;3.53;;
28531;SDS011;15738;44.860;10.066;2023-07-29T05:51:16;11.48;;;3.40;;
28531;SDS011;15738;44.860;10.066;2023-07-29T05:54:02;13.77;;;3.92;;
28531;SDS011;15738;44.860;10.066;2023-07-29T05:56:48;9.48;;;3.95;;
28531;SDS011;15738;44.860;10.066;2023-07-29T05:59:34;10.20;;;3.85;;
28531;SDS011;15738;44.860;10.066;2023-07-29T06:02:20;11.13;;;3.83;;
28531;SDS011;15738;44.860;10.066;2023-07-29T06:05:06;7.43;;;3.53;;
28531;SDS011;15738;44.860;10.066;2023-07-29T06:07:52;8.25;;;3.83;;
28531;SDS011;15738;44.860;10.066;2023-07-29T06:10:38;12.35;;;4.40;;
28531;SDS011;15738;44.860;10.066;2023-07-29T06:13:24;9.07;;;3.65;;
28531;SDS011;15738;44.860;10.066;2023-07-29T06:16:10;7.03;;;3.55;;
28531;SDS011;15738;44.860;10.066;2023-07-29T06:18:57;13.90;;;3.70;;
28531;SDS011;15738;44.860;10.066;2023-07-29T06:21:43;10.57;;;3.90;;
28531;SDS011;15738;44.860;10.066;2023-07-29T06:24:29;10.30;;;3.80;;
28531;SDS011;15738;44.860;10.066;2023-07-29T06:27:15;13.27;;;3.95;;
28531;SDS011;15738;44.860;10.066;2023-07-29T06:30:01;9.45;;;3.97;;
28531;SDS011;15738;44.860;10.066;2023-07-29T06:32:46;11.32;;;4.00;;
28531;SDS011;15738;44.860;10.066;2023-07-29T06:35:32;9.05;;;3.55;;
28531;SDS011;15738;44.860;10.066;2023-07-29T06:38:18;8.63;;;3.47;;
28531;SDS011;15738;44.860;10.066;2023-07-29T06:41:07;11.13;;;3.50;;
28531;SDS011;15738;44.860;10.066;2023-07-29T06:43:52;9.70;;;3.58;;
28531;SDS011;15738;44.860;10.066;2023-07-29T06:46:39;9.50;;;3.75;;
28531;SDS011;15738;44.860;10.066;2023-07-29T06:49:25;11.13;;;3.45;;
28531;SDS011;15738;44.860;10.066;2023-07-29T06:52:11;8.63;;;3.38;;
28531;SDS011;15738;44.860;10.066;2023-07-29T06:54:58;7.30;;;3.47;;
28531;SDS011;15738;44.860;10.066;2023-07-29T06:57:44;9.82;;;4.00;;
28531;SDS011;15738;44.860;10.066;2023-07-29T07:00:29;10.10;;;3.22;;
28531;SDS011;15738;44.860;10.066;2023-07-29T07:03:15;12.63;;;3.95;;
28531;SDS011;15738;44.860;10.066;2023-07-29T07:06:01;11.95;;;3.97;;
28531;SDS011;15738;44.860;10.066;2023-07-29T07:08:48;8.50;;;4.18;;
28531;SDS011;15738;44.860;10.066;2023-07-29T07:11:35;13.90;;;3.97;;
28531;SDS011;15738;44.860;10.066;2023-07-29T07:14:21;10.13;;;3.75;;
28531;SDS011;15738;44.860;10.066;2023-07-29T07:17:07;8.32;;;3.08;;
28531;SDS011;15738;44.860;10.066;2023-07-29T07:19:57;9.50;;;4.03;;
28531;SDS011;15738;44.860;10.066;2023-07-29T07:22:43;13.85;;;4.78;;
28531;SDS011;15738;44.860;10.066;2023-07-29T07:25:29;10.02;;;4.10;;
28531;SDS011;15738;44.860;10.066;2023-07-29T07:28:15;11.85;;;3.70;;
28531;SDS011;15738;44.860;10.066;2023-07-29T07:31:01;9.07;;;3.28;;
28531;SDS011;15738;44.860;10.066;2023-07-29T07:33:47;9.07;;;3.05;;
28531;SDS011;15738;44.860;10.066;2023-07-29T07:36:33;9.43;;;3.13;;
28531;SDS011;15738;44.860;10.066;2023-07-29T07:39:19;9.88;;;3.05;;
28531;SDS011;15738;44.860;10.066;2023-07-29T07:42:06;5.97;;;2.85;;
28531;SDS011;15738;44.860;10.066;2023-07-29T07:44:51;13.73;;;3.15;;
28531;SDS011;15738;44.860;10.066;2023-07-29T07:47:37;7.35;;;2.85;;
28531;SDS011;15738;44.860;10.066;2023-07-29T07:50:23;6.85;;;2.80;;
28531;SDS011;15738;44.860;10.066;2023-07-29T07:53:09;10.32;;;2.63;;
28531;SDS011;15738;44.860;10.066;2023-07-29T07:55:55;6.63;;;3.03;;
28531;SDS011;15738;44.860;10.066;2023-07-29T07:58:41;9.55;;;2.95;;
28531;SDS011;15738;44.860;10.066;2023-07-29T08:01:27;9.05;;;3.00;;
28531;SDS011;15738;44.860;10.066;2023-07-29T08:04:12;8.00;;;3.58;;
28531;SDS011;15738;44.860;10.066;2023-07-29T08:06:58;10.65;;;3.33;;
28531;SDS011;15738;44.860;10.066;2023-07-29T08:09:44;5.97;;;2.50;;
28531;SDS011;15738;44.860;10.066;2023-07-29T08:12:29;11.57;;;3.08;;
28531;SDS011;15738;44.860;10.066;2023-07-29T08:15:15;6.13;;;2.97;;
28531;SDS011;15738;44.860;10.066;2023-07-29T08:18:01;12.88;;;4.07;;
28531;SDS011;15738;44.860;10.066;2023-07-29T08:23:48;5.65;;;2.60;;
28531;SDS011;15738;44.860;10.066;2023-07-29T08:26:34;7.43;;;2.65;;
28531;SDS011;15738;44.860;10.066;2023-07-29T08:29:20;8.32;;;3.40;;
28531;SDS011;15738;44.860;10.066;2023-07-29T08:32:06;9.88;;;3.53;;
28531;SDS011;15738;44.860;10.066;2023-07-29T08:34:52;8.73;;;3.20;;
28531;SDS011;15738;44.860;10.066;2023-07-29T08:37:38;13.63;;;3.40;;
28531;SDS011;15738;44.860;10.066;2023-07-29T08:40:27;10.93;;;3.50;;
28531;SDS011;15738;44.860;10.066;2023-07-29T08:43:15;9.38;;;3.17;;
28531;SDS011;15738;44.860;10.066;2023-07-29T08:46:04;7.68;;;3.28;;
28531;SDS011;15738;44.860;10.066;2023-07-29T08:48:52;10.73;;;3.53;;
28531;SDS011;15738;44.860;10.066;2023-07-29T08:51:39;10.60;;;3.10;;
28531;SDS011;15738;44.860;10.066;2023-07-29T08:54:27;8.90;;;3.28;;
28531;SDS011;15738;44.860;10.066;2023-07-29T08:57:13;7.53;;;3.47;;
28531;SDS011;15738;44.860;10.066;2023-07-29T09:00:00;17.38;;;3.90;;
28531;SDS011;15738;44.860;10.066;2023-07-29T09:02:48;10.85;;;2.97;;
28531;SDS011;15738;44.860;10.066;2023-07-29T09:05:34;8.43;;;2.78;;
28531;SDS011;15738;44.860;10.066;2023-07-29T09:08:20;6.75;;;3.17;;
28531;SDS011;15738;44.860;10.066;2023-07-29T09:11:07;6.65;;;2.42;;
28531;SDS011;15738;44.860;10.066;2023-07-29T09:13:53;6.20;;;2.72;;
28531;SDS011;15738;44.860;10.066;2023-07-29T09:16:39;9.70;;;3.55;;
28531;SDS011;15738;44.860;10.066;2023-07-29T09:19:25;6.95;;;2.95;;
28531;SDS011;15738;44.860;10.066;2023-07-29T09:22:21;6.72;;;2.67;;
28531;SDS011;15738;44.860;10.066;2023-07-29T09:25:07;11.95;;;3.08;;
28531;SDS011;15738;44.860;10.066;2023-07-29T09:28:00;8.27;;;3.13;;
28531;SDS011;15738;44.860;10.066;2023-07-29T09:30:46;7.85;;;3.45;;
28531;SDS011;15738;44.860;10.066;2023-07-29T09:33:35;9.00;;;3.30;;
28531;SDS011;15738;44.860;10.066;2023-07-29T09:36:22;10.82;;;2.92;;
28531;SDS011;15738;44.860;10.066;2023-07-29T09:39:11;16.45;;;3.50;;
28531;SDS011;15738;44.860;10.066;2023-07-29T09:42:01;6.50;;;2.53;;
28531;SDS011;15738;44.860;10.066;2023-07-29T09:44:48;6.68;;;2.67;;
28531;SDS011;15738;44.860;10.066;2023-07-29T09:47:35;8.73;;;2.75;;
28531;SDS011;15738;44.860;10.066;2023-07-29T09:50:25;7.07;;;3.13;;
28531;SDS011;15738;44.860;10.066;2023-07-29T09:53:12;14.23;;;3.10;;
28531;SDS011;15738;44.860;10.066;2023-07-29T09:55:57;7.20;;;3.10;;
28531;SDS011;15738;44.860;10.066;2023-07-29T09:58:44;7.32;;;3.60;;
28531;SDS011;15738;44.860;10.066;2023-07-29T10:01:30;7.22;;;2.70;;
28531;SDS011;15738;44.860;10.066;2023-07-29T10:04:17;7.38;;;3.08;;
28531;SDS011;15738;44.860;10.066;2023-07-29T10:07:03;7.38;;;2.83;;
28531;SDS011;15738;44.860;10.066;2023-07-29T10:09:51;7.57;;;3.13;;
28531;SDS011;15738;44.860;10.066;2023-07-29T10:12:39;7.53;;;2.95;;
28531;SDS011;15738;44.860;10.066;2023-07-29T10:15:27;12.07;;;2.83;;
28531;SDS011;15738;44.860;10.066;2023-07-29T10:18:16;7.60;;;2.90;;
28531;SDS011;15738;44.860;10.066;2023-07-29T10:21:03;8.23;;;3.20;;
28531;SDS011;15738;44.860;10.066;2023-07-29T10:23:50;11.68;;;3.20;;
28531;SDS011;15738;44.860;10.066;2023-07-29T10:26:43;10.05;;;2.88;;
28531;SDS011;15738;44.860;10.066;2023-07-29T10:29:32;5.65;;;2.58;;
28531;SDS011;15738;44.860;10.066;2023-07-29T10:32:25;5.53;;;2.53;;
28531;SDS011;15738;44.860;10.066;2023-07-29T10:35:13;7.05;;;3.28;;
28531;SDS011;15738;44.860;10.066;2023-07-29T10:37:59;8.20;;;3.17;;
28531;SDS011;15738;44.860;10.066;2023-07-29T10:40:51;11.50;;;3.85;;
28531;SDS011;15738;44.860;10.066;2023-07-29T10:43:42;7.50;;;3.05;;
28531;SDS011;15738;44.860;10.066;2023-07-29T10:46:27;9.32;;;3.53;;
28531;SDS011;15738;44.860;10.066;2023-07-29T10:49:13;8.73;;;3.45;;
28531;SDS011;15738;44.860;10.066;2023-07-29T10:52:08;10.65;;;3.58;;
28531;SDS011;15738;44.860;10.066;2023-07-29T10:54:59;4.47;;;2.72;;
28531;SDS011;15738;44.860;10.066;2023-07-29T10:57:45;7.72;;;3.42;;
28531;SDS011;15738;44.860;10.066;2023-07-29T11:00:35;5.30;;;2.88;;
28531;SDS011;15738;44.860;10.066;2023-07-29T11:03:21;7.50;;;2.95;;
28531;SDS011;15738;44.860;10.066;2023-07-29T11:06:09;10.38;;;2.75;;
28531;SDS011;15738;44.860;10.066;2023-07-29T11:08:55;8.82;;;2.90;;
28531;SDS011;15738;44.860;10.066;2023-07-29T11:11:40;8.90;;;2.92;;
28531;SDS011;15738;44.860;10.066;2023-07-29T11:14:27;7.97;;;2.83;;
28531;SDS011;15738;44.860;10.066;2023-07-29T11:17:12;8.25;;;3.10;;
28531;SDS011;15738;44.860;10.066;2023-07-29T11:20:03;8.38;;;2.53;;
28531;SDS011;15738;44.860;10.066;2023-07-29T11:22:49;6.82;;;2.63;;
28531;SDS011;15738;44.860;10.066;2023-07-29T11:25:36;9.73;;;2.83;;
28531;SDS011;15738;44.860;10.066;2023-07-29T11:28:21;7.53;;;2.85;;
28531;SDS011;15738;44.860;10.066;2023-07-29T11:31:07;6.07;;;2.55;;
28531;SDS011;15738;44.860;10.066;2023-07-29T11:33:53;6.75;;;2.67;;
28531;SDS011;15738;44.860;10.066;2023-07-29T11:36:43;5.57;;;2.67;;
28531;SDS011;15738;44.860;10.066;2023-07-29T11:39:30;10.43;;;3.10;;
28531;SDS011;15738;44.860;10.066;2023-07-29T11:42:17;5.28;;;2.55;;
28531;SDS011;15738;44.860;10.066;2023-07-29T11:45:03;6.35;;;3.00;;
28531;SDS011;15738;44.860;10.066;2023-07-29T11:47:52;5.60;;;2.53;;
28531;SDS011;15738;44.860;10.066;2023-07-29T11:50:37;7.50;;;2.63;;
28531;SDS011;15738;44.860;10.066;2023-07-29T11:53:25;7.43;;;2.45;;
28531;SDS011;15738;44.860;10.066;2023-07-29T11:56:15;7.38;;;2.60;;
28531;SDS011;15738;44.860;10.066;2023-07-29T11:59:02;9.90;;;2.80;;
28531;SDS011;15738;44.860;10.066;2023-07-29T12:01:48;6.97;;;2.80;;
28531;SDS011;15738;44.860;10.066;2023-07-29T12:04:34;11.05;;;3.13;;
28531;SDS011;15738;44.860;10.066;2023-07-29T12:07:21;4.55;;;2.67;;
28531;SDS011;15738;44.860;10.066;2023-07-29T12:10:07;10.90;;;2.88;;
28531;SDS011;15738;44.860;10.066;2023-07-29T12:12:53;7.75;;;2.75;;
28531;SDS011;15738;44.860;10.066;2023-07-29T12:15:40;6.05;;;2.83;;
28531;SDS011;15738;44.860;10.066;2023-07-29T12:18:30;6.35;;;2.33;;
28531;SDS011;15738;44.860;10.066;2023-07-29T12:21:20;5.47;;;2.72;;
28531;SDS011;15738;44.860;10.066;2023-07-29T12:24:06;7.47;;;2.97;;
28531;SDS011;15738;44.860;10.066;2023-07-29T12:26:53;5.32;;;2.83;;
28531;SDS011;15738;44.860;10.066;2023-07-29T12:29:40;6.38;;;2.83;;
28531;SDS011;15738;44.860;10.066;2023-07-29T12:32:27;7.32;;;2.92;;
28531;SDS011;15738;44.860;10.066;2023-07-29T12:35:13;8.65;;;2.97;;
28531;SDS011;15738;44.860;10.066;2023-07-29T12:37:59;7.10;;;2.88;;
28531;SDS011;15738;44.860;10.066;2023-07-29T12:40:46;7.03;;;3.10;;
28531;SDS011;15738;44.860;10.066;2023-07-29T12:43:31;6.05;;;2.70;;
28531;SDS011;15738;44.860;10.066;2023-07-29T12:46:17;5.18;;;2.72;;
28531;SDS011;15738;44.860;10.066;2023-07-29T12:49:03;7.50;;;3.15;;
28531;SDS011;15738;44.860;10.066;2023-07-29T12:51:49;8.52;;;2.60;;
28531;SDS011;15738;44.860;10.066;2023-07-29T12:54:35;11.75;;;3.00;;
28531;SDS011;15738;44.860;10.066;2023-07-29T12:57:21;7.75;;;2.75;;
28531;SDS011;15738;44.860;10.066;2023-07-29T13:00:08;3.47;;;2.22;;
28531;SDS011;15738;44.860;10.066;2023-07-29T13:02:55;5.25;;;2.58;;
28531;SDS011;15738;44.860;10.066;2023-07-29T13:05:41;11.20;;;3.33;;
28531;SDS011;15738;44.860;10.066;2023-07-29T13:08:27;8.77;;;2.97;;
28531;SDS011;15738;44.860;10.066;2023-07-29T13:11:15;4.07;;;2.45;;
28531;SDS011;15738;44.860;10.066;2023-07-29T13:14:02;6.82;;;2.63;;
28531;SDS011;15738;44.860;10.066;2023-07-29T13:16:48;6.05;;;2.42;;
28531;SDS011;15738;44.860;10.066;2023-07-29T13:19:34;4.38;;;2.63;;
28531;SDS011;15738;44.860;10.066;2023-07-29T13:22:19;6.72;;;2.45;;
28531;SDS011;15738;44.860;10.066;2023-07-29T13:25:05;4.13;;;2.30;;
28531;SDS011;15738;44.860;10.066;2023-07-29T13:27:53;4.82;;;2.65;;
28531;SDS011;15738;44.860;10.066;2023-07-29T13:30:40;6.88;;;2.97;;
28531;SDS011;15738;44.860;10.066;2023-07-29T13:33:25;6.68;;;2.80;;
28531;SDS011;15738;44.860;10.066;2023-07-29T13:36:11;8.27;;;2.83;;
28531;SDS011;15738;44.860;10.066;2023-07-29T13:38:57;5.65;;;2.45;;
28531;SDS011;15738;44.860;10.066;2023-07-29T13:41:43;7.82;;;3.15;;
28531;SDS011;15738;44.860;10.066;2023-07-29T13:44:29;6.90;;;2.90;;
28531;SDS011;15738;44.860;10.066;2023-07-29T13:47:14;8.23;;;2.70;;
28531;SDS011;15738;44.860;10.066;2023-07-29T13:50:01;6.55;;;2.45;;
28531;SDS011;15738;44.860;10.066;2023-07-29T13:52:47;12.85;;;2.97;;
28531;SDS011;15738;44.860;10.066;2023-07-29T13:55:33;5.97;;;2.50;;
28531;SDS011;15738;44.860;10.066;2023-07-29T13:58:19;4.30;;;2.17;;
28531;SDS011;15738;44.860;10.066;2023-07-29T14:01:05;4.95;;;2.53;;
28531;SDS011;15738;44.860;10.066;2023-07-29T14:03:51;4.50;;;2.55;;
28531;SDS011;15738;44.860;10.066;2023-07-29T14:06:37;12.27;;;2.65;;
28531;SDS011;15738;44.860;10.066;2023-07-29T14:09:25;4.55;;;2.30;;
28531;SDS011;15738;44.860;10.066;2023-07-29T14:12:11;9.85;;;2.53;;
28531;SDS011;15738;44.860;10.066;2023-07-29T14:15:00;4.10;;;2.63;;
28531;SDS011;15738;44.860;10.066;2023-07-29T14:17:46;8.75;;;2.65;;
28531;SDS011;15738;44.860;10.066;2023-07-29T14:20:32;6.00;;;2.55;;
28531;SDS011;15738;44.860;10.066;2023-07-29T14:23:18;5.20;;;2.70;;
28531;SDS011;15738;44.860;10.066;2023-07-29T14:26:04;5.20;;;2.50;;
28531;SDS011;15738;44.860;10.066;2023-07-29T14:28:49;4.45;;;2.30;;
28531;SDS011;15738;44.860;10.066;2023-07-29T14:31:35;3.47;;;2.00;;
28531;SDS011;15738;44.860;10.066;2023-07-29T14:34:21;5.85;;;2.35;;
28531;SDS011;15738;44.860;10.066;2023-07-29T14:37:06;4.93;;;2.33;;
28531;SDS011;15738;44.860;10.066;2023-07-29T14:39:52;4.32;;;2.47;;
28531;SDS011;15738;44.860;10.066;2023-07-29T14:42:38;5.72;;;2.40;;
28531;SDS011;15738;44.860;10.066;2023-07-29T14:45:24;7.80;;;2.55;;
28531;SDS011;15738;44.860;10.066;2023-07-29T14:48:10;5.55;;;2.45;;
28531;SDS011;15738;44.860;10.066;2023-07-29T14:50:56;4.28;;;2.38;;
28531;SDS011;15738;44.860;10.066;2023-07-29T14:53:42;6.38;;;2.70;;
28531;SDS011;15738;44.860;10.066;2023-07-29T14:56:28;5.22;;;2.70;;
28531;SDS011;15738;44.860;10.066;2023-07-29T14:59:14;5.80;;;2.70;;
28531;SDS011;15738;44.860;10.066;2023-07-29T15:02:00;6.20;;;2.47;;
28531;SDS011;15738;44.860;10.066;2023-07-29T15:04:46;4.35;;;2.60;;
28531;SDS011;15738;44.860;10.066;2023-07-29T15:07:32;6.18;;;2.60;;
28531;SDS011;15738;44.860;10.066;2023-07-29T15:10:17;8.60;;;2.72;;
28531;SDS011;15738;44.860;10.066;2023-07-29T15:13:04;4.25;;;2.40;;
28531;SDS011;15738;44.860;10.066;2023-07-29T15:15:49;4.65;;;2.65;;
28531;SDS011;15738;44.860;10.066;2023-07-29T15:18:36;3.80;;;2.38;;
28531;SDS011;15738;44.860;10.066;2023-07-29T15:21:23;4.75;;;2.53;;
28531;SDS011;15738;44.860;10.066;2023-07-29T15:24:09;6.05;;;2.90;;
28531;SDS011;15738;44.860;10.066;2023-07-29T15:26:54;4.63;;;2.55;;
28531;SDS011;15738;44.860;10.066;2023-07-29T15:29:40;6.57;;;2.65;;
28531;SDS011;15738;44.860;10.066;2023-07-29T15:32:27;5.15;;;2.72;;
28531;SDS011;15738;44.860;10.066;2023-07-29T15:35:13;5.35;;;2.60;;
28531;SDS011;15738;44.860;10.066;2023-07-29T15:38:01;5.88;;;2.92;;
28531;SDS011;15738;44.860;10.066;2023-07-29T15:40:46;8.05;;;2.92;;
28531;SDS011;15738;44.860;10.066;2023-07-29T15:43:34;6.72;;;2.97;;
28531;SDS011;15738;44.860;10.066;2023-07-29T15:46:20;7.30;;;2.90;;
28531;SDS011;15738;44.860;10.066;2023-07-29T15:49:06;8.32;;;2.45;;
28531;SDS011;15738;44.860;10.066;2023-07-29T15:51:53;5.82;;;2.50;;
28531;SDS011;15738;44.860;10.066;2023-07-29T15:54:39;8.23;;;2.80;;
28531;SDS011;15738;44.860;10.066;2023-07-29T15:57:25;4.68;;;2.75;;
28531;SDS011;15738;44.860;10.066;2023-07-29T16:00:10;6.80;;;2.80;;
28531;SDS011;15738;44.860;10.066;2023-07-29T16:02:59;4.70;;;2.60;;
28531;SDS011;15738;44.860;10.066;2023-07-29T16:05:44;5.05;;;2.80;;
28531;SDS011;15738;44.860;10.066;2023-07-29T16:08:32;7.50;;;2.63;;
28531;SDS011;15738;44.860;10.066;2023-07-29T16:11:18;7.00;;;2.55;;
28531;SDS011;15738;44.860;10.066;2023-07-29T16:14:05;6.15;;;2.50;;
28531;SDS011;15738;44.860;10.066;2023-07-29T16:16:51;4.97;;;2.65;;
28531;SDS011;15738;44.860;10.066;2023-07-29T16:19:51;6.22;;;2.67;;
28531;SDS011;15738;44.860;10.066;2023-07-29T16:22:41;7.22;;;3.00;;
28531;SDS011;15738;44.860;10.066;2023-07-29T16:25:28;5.00;;;2.58;;
28531;SDS011;15738;44.860;10.066;2023-07-29T16:28:14;4.30;;;2.50;;
28531;SDS011;15738;44.860;10.066;2023-07-29T16:30:59;4.38;;;2.45;;
28531;SDS011;15738;44.860;10.066;2023-07-29T16:33:45;6.30;;;3.00;;
28531;SDS011;15738;44.860;10.066;2023-07-29T16:36:31;7.18;;;2.70;;
28531;SDS011;15738;44.860;10.066;2023-07-29T16:39:17;6.97;;;3.00;;